Terminal Aerodrome Forecast
Issued by NWS

Home | Current Version | Previous Version | Text Only | Print | Product List | Glossary On
Versions: 1 2 3 4 5 6 7 8 9 10 11 12 13 14 15 16
000
FTUS46 KSEW 280542
TAFBFI
TAF
KBFI 280542Z 2806/2906 17005KT P6SM SCT035
     FM281000 16004KT P6SM OVC018
     FM281800 17004KT P6SM BKN025
     FM281900 18005KT P6SM BKN035
     FM282000 18006KT P6SM SCT045
     FM290000 30006KT P6SM SCT045=

USA.gov is the U.S. government's official web portal to all federal, state and local government web resources and services.